Time;durP1;ratioP1;P1;durP2;ratioP2;P2;SDS_P1;SDS_P2;PMS_P1;PMS_P2;Temp;Humidity;BMP_temperature;BMP_pressure;BME280_temperature;BME280_humidity;BME280_pressure;Samples;Min_cycle;Max_cycle;Signal;HPM_P1;HPM_P2
2022/01/29 00:04:31;;;;;;;1.73;0.98;;;16.10;26.70;16.20;95326.00;;;;10295913;28;48065;-77
2022/01/29 00:09:32;;;;;;;1.67;0.82;;;16.10;26.70;16.20;95345.00;;;;10295972;28;47471;-76
2022/01/29 00:14:33;;;;;;;2.05;0.73;;;16.10;26.70;16.20;95342.00;;;;10295671;28;48424;-76
2022/01/29 00:19:37;;;;;;;1.45;0.90;;;16.10;26.80;16.20;95333.00;;;;10296321;28;47268;-77
2022/01/29 00:24:38;;;;;;;1.77;0.77;;;16.10;26.80;16.10;95328.00;;;;10336613;28;46912;-76
2022/01/29 00:29:41;;;;;;;1.25;0.70;;;16.10;26.70;16.10;95333.00;;;;10335975;28;47336;-77
2022/01/29 00:34:42;;;;;;;1.65;0.60;;;16.10;26.70;16.10;95323.00;;;;10335691;28;47006;-76
2022/01/29 00:39:43;;;;;;;2.17;0.75;;;16.00;26.60;16.10;95311.00;;;;10352797;28;45299;-77
2022/01/29 00:44:44;;;;;;;2.50;0.50;;;16.00;26.50;16.10;95310.00;;;;10349583;23;47439;-73
2022/01/29 00:49:45;;;;;;;1.17;0.70;;;16.00;26.70;16.10;95291.00;;;;10335662;28;46980;-73
2022/01/29 00:54:46;;;;;;;1.98;0.82;;;16.00;26.50;16.10;95281.00;;;;10331564;28;47473;-73
2022/01/29 00:59:47;;;;;;;1.58;0.70;;;16.00;26.50;16.10;95291.00;;;;10311143;28;45444;-73
2022/01/29 01:04:47;;;;;;;1.80;0.70;;;16.00;26.60;16.10;95276.00;;;;10311718;28;47497;-73
2022/01/29 01:09:48;;;;;;;2.15;0.70;;;16.00;26.70;16.10;95286.00;;;;10294833;28;47580;-73
2022/01/29 01:14:49;;;;;;;1.45;0.60;;;16.00;26.70;16.10;95286.00;;;;10310176;28;45405;-74
2022/01/29 01:19:50;;;;;;;1.05;0.60;;;16.00;26.60;16.10;95293.00;;;;10296028;28;46920;-73
2022/01/29 01:24:51;;;;;;;3.25;0.73;;;16.00;26.60;16.00;95287.00;;;;10311851;28;46999;-72
2022/01/29 01:29:51;;;;;;;1.27;0.50;;;16.00;26.60;16.00;95278.00;;;;10312392;28;46895;-73
2022/01/29 01:34:55;;;;;;;1.33;0.63;;;16.00;26.60;16.00;95272.00;;;;10311177;28;45430;-73
2022/01/29 01:39:56;;;;;;;0.90;0.50;;;15.90;26.50;16.00;95267.00;;;;10294501;28;47481;-73
2022/01/29 01:44:57;;;;;;;1.55;0.70;;;15.90;26.50;16.00;95245.00;;;;10293295;28;47191;-73
2022/01/29 01:49:57;;;;;;;1.40;0.70;;;16.00;26.40;16.00;95244.00;;;;10316837;28;45544;-73
2022/01/29 01:54:58;;;;;;;1.38;0.60;;;16.00;26.20;16.00;95229.00;;;;10316722;28;46684;-73
2022/01/29 01:59:59;;;;;;;0.73;0.60;;;16.00;25.90;16.00;95213.00;;;;10296034;28;47169;-73
2022/01/29 02:05:00;;;;;;;1.73;0.70;;;16.00;25.80;16.00;95218.00;;;;10296046;28;47449;-73
2022/01/29 02:10:01;;;;;;;2.05;0.70;;;16.00;25.80;16.10;95224.00;;;;10316399;28;45327;-73
2022/01/29 02:15:05;;;;;;;1.63;0.57;;;16.00;26.00;16.10;95210.00;;;;10316884;28;45544;-73
2022/01/29 02:20:07;;;;;;;1.27;0.65;;;16.00;26.00;16.10;95231.00;;;;10304505;28;47122;-73
2022/01/29 02:25:45;;;;;;;0.93;0.43;;;16.00;26.10;16.10;95217.00;;;;10339216;28;47136;-73
2022/01/29 02:30:59;;;;;;;1.23;0.52;;;16.00;26.40;16.20;95203.00;;;;10339752;28;47013;-73
2022/01/29 02:36:00;;;;;;;0.82;0.40;;;16.10;26.40;16.20;95191.00;;;;10339941;28;46995;-73
2022/01/29 02:41:04;;;;;;;1.88;0.70;;;16.20;26.30;16.20;95205.00;;;;10356070;28;45349;-73
2022/01/29 02:46:18;;;;;;;1.85;0.55;;;16.20;26.00;16.20;95191.00;;;;10354619;28;46690;-73
2022/01/29 02:51:20;;;;;;;1.55;0.60;;;16.20;25.80;16.20;95189.00;;;;10356072;28;45186;-73
2022/01/29 02:56:21;;;;;;;1.58;0.60;;;16.10;25.70;16.10;95186.00;;;;10354329;28;46918;-73
2022/01/29 03:01:21;;;;;;;0.85;0.50;;;16.20;25.60;16.10;95171.00;;;;10338508;28;47405;-73
2022/01/29 03:06:22;;;;;;;0.88;0.50;;;16.10;25.60;16.20;95178.00;;;;10354790;28;46482;-73
2022/01/29 03:11:23;;;;;;;1.90;0.60;;;16.20;25.60;16.20;95161.00;;;;10356381;28;45580;-73
2022/01/29 03:16:23;;;;;;;1.38;0.75;;;16.10;25.50;16.20;95182.00;;;;10354337;28;47019;-73
2022/01/29 03:21:24;;;;;;;2.00;0.68;;;16.10;25.50;16.20;95176.00;;;;10354482;28;47379;-73
2022/01/29 03:26:25;;;;;;;1.90;0.80;;;16.10;25.50;16.20;95157.00;;;;10338112;28;46756;-73
2022/01/29 03:31:26;;;;;;;1.73;0.88;;;16.10;25.30;16.20;95149.00;;;;10354495;28;45849;-73
2022/01/29 03:36:27;;;;;;;1.55;0.80;;;16.10;25.40;16.20;95144.00;;;;10353900;28;45329;-73
2022/01/29 03:41:27;;;;;;;1.33;0.70;;;16.20;25.40;16.20;95147.00;;;;10355546;28;45314;-73
2022/01/29 03:46:28;;;;;;;2.05;0.98;;;16.20;25.40;16.20;95158.00;;;;10336367;28;47335;-74
2022/01/29 03:51:29;;;;;;;1.85;1.00;;;16.20;25.40;16.20;95156.00;;;;10353954;28;45222;-73
2022/01/29 03:56:30;;;;;;;2.80;1.02;;;16.20;25.50;16.20;95151.00;;;;10354134;28;45315;-73
2022/01/29 04:01:30;;;;;;;1.30;0.80;;;16.20;25.50;16.20;95163.00;;;;10354818;28;45481;-73
2022/01/29 04:06:31;;;;;;;1.73;0.80;;;16.10;25.50;16.20;95139.00;;;;10352639;28;47092;-73
2022/01/29 04:11:36;;;;;;;2.00;0.80;;;16.10;25.60;16.20;95136.00;;;;10352522;28;47442;-73
2022/01/29 04:16:37;;;;;;;1.52;0.75;;;16.10;25.50;16.10;95122.00;;;;10352696;28;48055;-73
2022/01/29 04:21:41;;;;;;;1.10;0.73;;;16.10;25.50;16.10;95142.00;;;;10353163;28;45396;-73
2022/01/29 04:26:41;;;;;;;1.60;0.90;;;16.10;25.60;16.10;95149.00;;;;10352225;28;46933;-73
2022/01/29 04:31:55;;;;;;;1.27;0.80;;;16.10;25.60;16.10;95136.00;;;;10352374;28;47235;-73
2022/01/29 04:36:55;;;;;;;1.92;0.90;;;16.10;25.60;16.10;95143.00;;;;10338104;28;47037;-73
2022/01/29 04:41:56;;;;;;;1.60;0.85;;;16.10;25.60;16.10;95134.00;;;;10353482;28;45445;-73
2022/01/29 04:46:57;;;;;;;2.03;1.00;;;16.10;25.60;16.10;95139.00;;;;10351780;28;47526;-73
2022/01/29 04:51:57;;;;;;;1.77;0.98;;;16.10;25.60;16.10;95130.00;;;;10351623;28;47242;-73
2022/01/29 04:56:58;;;;;;;1.88;1.02;;;16.10;25.70;16.10;95121.00;;;;10352676;28;46658;-73
2022/01/29 05:01:59;;;;;;;1.80;1.00;;;16.10;25.60;16.10;95122.00;;;;10352070;28;45235;-74
2022/01/29 05:06:59;;;;;;;2.60;1.10;;;16.00;25.60;16.10;95107.00;;;;10352506;28;46422;-73
2022/01/29 05:12:02;;;;;;;1.63;1.00;;;16.00;25.60;16.00;95101.00;;;;10351341;28;46973;-73
2022/01/29 05:27:34;;;;;;;3.78;0.93;;;16.00;25.80;16.10;95104.00;;;;10358405;28;45781;-73
2022/01/29 05:32:34;;;;;;;1.42;0.90;;;16.00;25.80;16.10;95115.00;;;;10358183;28;45355;-73
2022/01/29 05:37:35;;;;;;;2.83;1.00;;;16.00;25.80;16.10;95112.00;;;;10357663;28;46483;-74
2022/01/29 05:42:36;;;;;;;1.73;0.73;;;16.00;26.20;16.10;95098.00;;;;10357989;28;45210;-73
2022/01/29 05:47:37;;;;;;;2.08;0.90;;;16.00;26.20;16.00;95103.00;;;;10340404;28;47668;-73
2022/01/29 05:52:38;;;;;;;1.52;1.00;;;16.00;25.80;16.00;95098.00;;;;10340950;28;47045;-73
2022/01/29 05:57:38;;;;;;;2.70;1.10;;;16.00;25.80;16.00;95087.00;;;;10356985;28;46608;-73
2022/01/29 06:02:39;;;;;;;1.67;0.93;;;16.00;25.90;16.00;95099.00;;;;10340404;28;48091;-73
2022/01/29 06:07:40;;;;;;;1.77;0.95;;;16.00;25.80;16.00;95096.00;;;;10356788;28;45636;-73
2022/01/29 06:12:40;;;;;;;2.55;1.35;;;16.00;25.80;16.10;95090.00;;;;10340646;28;47539;-73
2022/01/29 06:17:41;;;;;;;2.30;1.10;;;16.00;25.70;16.10;95105.00;;;;10356884;28;46751;-73
2022/01/29 06:22:42;;;;;;;2.30;1.20;;;16.00;25.70;16.10;95111.00;;;;10356598;28;45355;-73
2022/01/29 06:27:43;;;;;;;1.85;0.88;;;16.00;25.80;16.20;95121.00;;;;10339673;28;47251;-74
2022/01/29 06:32:44;;;;;;;1.40;0.75;;;16.20;25.60;16.20;95125.00;;;;10355887;28;45576;-73
2022/01/29 06:37:44;;;;;;;1.75;0.90;;;16.20;25.30;16.20;95126.00;;;;10355535;28;45247;-73
2022/01/29 06:42:45;;;;;;;2.45;1.30;;;16.20;25.20;16.20;95134.00;;;;10356095;28;45656;-73
2022/01/29 06:47:45;;;;;;;3.28;1.50;;;16.30;25.20;16.30;95136.00;;;;10339259;22;45538;-73
2022/01/29 06:52:46;;;;;;;2.55;1.50;;;16.30;25.40;16.30;95151.00;;;;10298604;28;46623;-74
2022/01/29 06:57:47;;;;;;;2.83;1.83;;;16.30;24.90;16.30;95141.00;;;;10291605;28;45418;-73
2022/01/29 07:02:48;;;;;;;2.90;1.50;;;16.30;25.10;16.40;95141.00;;;;10274586;28;46606;-73
2022/01/29 07:07:49;;;;;;;1.60;1.30;;;16.30;24.80;16.40;95147.00;;;;10280055;28;46877;-73
2022/01/29 07:12:50;;;;;;;2.10;1.10;;;16.40;24.90;16.40;95121.00;;;;10291425;28;45397;-73
2022/01/29 07:17:50;;;;;;;0.93;0.65;;;16.50;24.80;16.40;95128.00;;;;10297180;28;47132;-73
2022/01/29 07:22:51;;;;;;;1.05;0.50;;;16.50;24.90;16.40;95136.00;;;;10297651;28;47309;-73
2022/01/29 07:27:52;;;;;;;0.45;0.40;;;16.50;24.80;16.50;95141.00;;;;10296652;28;47464;-74
2022/01/29 07:32:52;;;;;;;1.13;0.40;;;16.60;24.90;16.50;95149.00;;;;10313577;28;45178;-73
2022/01/29 07:37:53;;;;;;;0.75;0.50;;;16.50;24.90;16.50;95131.00;;;;10313269;28;46321;-73
2022/01/29 07:42:53;;;;;;;0.68;0.40;;;16.50;24.80;16.50;95113.00;;;;10296306;28;47395;-74
2022/01/29 07:47:54;;;;;;;1.45;0.40;;;16.60;24.80;16.60;95100.00;;;;10312905;28;46953;-74
2022/01/29 07:52:57;;;;;;;1.27;0.30;;;16.70;25.40;16.70;95133.00;;;;10312697;28;47558;-74
2022/01/29 07:57:59;;;;;;;2.03;0.28;;;16.80;25.20;16.70;95140.00;;;;10297726;28;46929;-74
2022/01/29 08:03:00;;;;;;;0.65;0.20;;;16.90;25.00;16.80;95138.00;;;;10314605;28;46470;-74
2022/01/29 08:08:00;;;;;;;1.30;0.20;;;17.00;24.90;16.90;95135.00;;;;10312732;28;45134;-74
2022/01/29 08:13:01;;;;;;;0.47;0.20;;;17.10;24.80;16.90;95132.00;;;;10312321;28;45979;-74
2022/01/29 08:18:02;;;;;;;0.25;0.13;;;17.10;24.90;16.90;95129.00;;;;10311587;28;47279;-74
2022/01/29 08:23:10;;;;;;;0.73;0.38;;;17.20;24.40;16.90;95138.00;;;;10311820;28;45338;-74
2022/01/29 08:28:11;;;;;;;1.13;0.50;;;17.20;24.30;16.90;95132.00;;;;10311221;28;45249;-74
2022/01/29 08:33:17;;;;;;;0.80;0.30;;;17.20;24.20;16.90;95126.00;;;;10294682;28;47131;-77
2022/01/29 08:38:18;;;;;;;0.43;0.30;;;17.20;24.50;17.00;95139.00;;;;10311897;28;45200;-73
2022/01/29 08:43:19;;;;;;;0.90;0.57;;;17.20;24.40;16.90;95131.00;;;;10296758;28;47292;-73
2022/01/29 08:48:20;;;;;;;0.88;0.50;;;17.20;24.20;17.00;95145.00;;;;10310907;28;45329;-73
2022/01/29 08:53:21;;;;;;;0.70;0.50;;;17.20;24.30;17.00;95158.00;;;;10311023;28;45201;-73
2022/01/29 08:58:21;;;;;;;0.82;0.50;;;17.30;24.40;17.00;95175.00;;;;10299507;28;47233;-74
2022/01/29 09:03:23;;;;;;;0.60;0.32;;;17.30;24.40;17.10;95163.00;;;;10318171;28;45438;-74
2022/01/29 09:08:24;;;;;;;0.45;0.30;;;17.40;24.40;17.20;95172.00;;;;10318091;28;46091;-74
2022/01/29 09:13:26;;;;;;;0.90;0.70;;;17.50;24.40;17.20;95185.00;;;;10301600;28;47211;-74
2022/01/29 09:18:27;;;;;;;1.40;0.65;;;17.50;24.40;17.30;95184.00;;;;10317426;28;45544;-73
2022/01/29 09:23:27;;;;;;;0.57;0.40;;;17.60;24.30;17.30;95169.00;;;;10300839;28;47148;-73
2022/01/29 09:28:28;;;;;;;0.77;0.38;;;17.70;24.40;17.40;95180.00;;;;10300901;28;47277;-74
2022/01/29 09:33:28;;;;;;;0.52;0.47;;;17.70;24.50;17.40;95164.00;;;;10300358;28;48558;-73
2022/01/29 09:38:30;;;;;;;0.90;0.50;;;17.70;24.50;17.40;95185.00;;;;10304304;28;47022;-74
2022/01/29 09:43:33;;;;;;;0.60;0.30;;;17.80;24.40;17.40;95166.00;;;;10334549;28;47146;-76
2022/01/29 09:48:34;;;;;;;0.40;0.40;;;17.80;24.40;17.50;95167.00;;;;10326030;28;46709;-76
2022/01/29 09:53:36;;;;;;;0.73;0.50;;;17.80;24.30;17.50;95163.00;;;;10298934;28;48162;-76
2022/01/29 09:58:37;;;;;;;0.47;0.32;;;17.90;24.40;17.50;95161.00;;;;10298893;28;46029;-75
2022/01/29 10:03:38;;;;;;;0.73;0.30;;;17.90;24.30;17.50;95186.00;;;;10277321;28;47124;-75
2022/01/29 10:08:43;;;;;;;0.50;0.40;;;17.90;24.30;17.60;95185.00;;;;10273981;28;46699;-75
2022/01/29 10:13:44;;;;;;;0.43;0.35;;;18.00;24.40;17.50;95196.00;;;;10260979;28;47436;-73
2022/01/29 10:19:05;;;;;;;0.85;0.43;;;18.00;24.40;17.60;95202.00;;;;10261547;28;47650;-75
2022/01/29 10:24:12;;;;;;;3.22;0.50;;;18.00;24.70;17.60;95202.00;;;;10297682;28;47162;-73
2022/01/29 10:29:25;;;;;;;2.03;0.30;;;18.00;26.60;17.70;95196.00;;;;10316689;28;45322;-73
2022/01/29 10:34:30;;;;;;;1.50;0.43;;;18.00;27.10;17.70;95189.00;;;;10301979;28;47274;-73
2022/01/29 10:39:30;;;;;;;9.05;0.80;;;18.00;27.60;17.70;95173.00;;;;10301889;28;47182;-76
2022/01/29 10:44:44;;;;;;;3.13;0.40;;;18.10;27.40;17.60;95170.00;;;;10317659;28;45657;-73
2022/01/29 10:50:05;;;;;;;2.60;0.40;;;18.00;26.70;17.60;95154.00;;;;10290716;28;45194;-74
2022/01/29 10:55:08;;;;;;;4.15;0.50;;;17.90;26.40;17.60;95164.00;;;;10276578;28;45344;-73
2022/01/29 11:00:22;;;;;;;1.15;0.30;;;17.90;26.30;17.50;95161.00;;;;10260497;28;47619;-73
2022/01/29 11:05:26;;;;;;;0.50;0.20;;;17.80;26.30;17.50;95158.00;;;;10276563;28;45414;-74
2022/01/29 11:10:26;;;;;;;0.85;0.30;;;17.80;26.50;17.50;95143.00;;;;10276519;28;47224;-74
2022/01/29 11:15:28;;;;;;;0.20;0.20;;;17.80;26.40;17.50;95164.00;;;;10276480;28;45292;-74
2022/01/29 11:20:29;;;;;;;0.45;0.20;;;17.70;26.40;17.50;95166.00;;;;10283677;28;47040;-74
2022/01/29 11:25:34;;;;;;;0.30;0.20;;;17.70;26.30;17.40;95171.00;;;;10315553;28;45615;-76
2022/01/29 11:30:35;;;;;;;0.85;0.30;;;17.70;26.30;17.40;95163.00;;;;10298599;28;47213;-76
2022/01/29 11:35:56;;;;;;;0.30;0.28;;;17.60;26.30;17.40;95163.00;;;;10316926;28;45455;-77
2022/01/29 11:41:02;;;;;;;0.35;0.20;;;17.60;26.30;17.40;95150.00;;;;10297771;28;47207;-75
2022/01/29 11:46:25;;;;;;;0.32;0.20;;;17.50;26.30;17.30;95157.00;;;;10297491;28;47626;-76
2022/01/29 11:51:43;;;;;;;1.10;0.40;;;17.50;26.30;17.30;95149.00;;;;10314359;28;46749;-76
2022/01/29 11:56:45;;;;;;;0.40;0.28;;;17.50;26.20;17.30;95137.00;;;;10295087;28;48133;-77
2022/01/29 12:01:48;;;;;;;0.57;0.40;;;17.40;26.20;17.30;95120.00;;;;10296004;28;47734;-77
2022/01/29 12:12:30;;;;;;;0.40;0.30;;;17.40;26.20;17.30;95112.00;;;;10320267;28;46225;-74
2022/01/29 12:17:50;;;;;;;0.45;0.30;;;17.40;26.30;17.30;95115.00;;;;10263380;28;45183;-75
2022/01/29 12:22:58;;;;;;;0.68;0.38;;;17.40;26.40;17.30;95112.00;;;;10306495;28;47739;-74
2022/01/29 12:28:07;;;;;;;0.57;0.50;;;17.50;26.40;17.30;95115.00;;;;10255051;28;47330;-74
2022/01/29 12:33:21;;;;;;;0.60;0.35;;;17.40;26.40;17.30;95119.00;;;;10255883;28;46673;-73
2022/01/29 12:38:41;;;;;;;0.45;0.40;;;17.40;26.40;17.30;95100.00;;;;10256007;28;48327;-74
2022/01/29 12:43:53;;;;;;;0.40;0.30;;;17.50;26.50;17.40;95103.00;;;;10255947;28;48142;-73
2022/01/29 12:49:11;;;;;;;0.50;0.30;;;17.50;26.50;17.40;95083.00;;;;10320510;23;47192;-76
2022/01/29 12:54:12;;;;;;;0.80;0.47;;;17.50;26.50;17.40;95065.00;;;;10352312;28;47550;-76
2022/01/29 12:59:14;;;;;;;0.95;0.40;;;17.50;26.50;17.40;95066.00;;;;10320426;28;46576;-76
2022/01/29 13:04:18;;;;;;;0.38;0.35;;;17.50;26.60;17.40;95063.00;;;;10310997;28;47675;-76
2022/01/29 13:09:24;;;;;;;0.50;0.30;;;17.50;26.70;17.40;95063.00;;;;10311994;28;45244;-76
2022/01/29 13:14:25;;;;;;;0.45;0.30;;;17.60;26.60;17.40;95062.00;;;;10311145;28;47216;-76
2022/01/29 13:19:28;;;;;;;0.32;0.20;;;17.60;26.70;17.40;95045.00;;;;10315610;28;48127;-74
2022/01/29 13:24:38;;;;;;;0.47;0.28;;;17.60;26.70;17.40;95047.00;;;;10299955;28;46600;-74
2022/01/29 13:30:21;;;;;;;0.10;0.10;;;17.60;26.70;17.50;95047.00;;;;10350391;28;48383;-74
2022/01/29 13:35:29;;;;;;;0.40;0.20;;;17.60;26.70;17.50;95038.00;;;;10327847;28;45362;-74
2022/01/29 13:40:34;;;;;;;0.40;0.30;;;17.60;26.60;17.50;95058.00;;;;10310719;28;45162;-73
2022/01/29 13:45:49;;;;;;;0.43;0.30;;;17.60;26.60;17.50;95030.00;;;;10317869;28;46456;-74
2022/01/29 13:50:58;;;;;;;0.75;0.38;;;17.60;26.60;17.50;95017.00;;;;10326265;28;46701;-74
2022/01/29 13:56:14;;;;;;;0.50;0.30;;;17.60;26.60;17.40;95029.00;;;;10356867;28;48196;-74
2022/01/29 14:01:35;;;;;;;0.30;0.20;;;17.60;26.60;17.40;95006.00;;;;10357789;28;45513;-74
2022/01/29 14:06:48;;;;;;;0.20;0.20;;;17.60;26.60;17.40;95018.00;;;;10372968;28;46556;-74
2022/01/29 14:11:58;;;;;;;0.40;0.40;;;17.60;26.70;17.40;95027.00;;;;10357299;28;45383;-74
2022/01/29 14:17:03;;;;;;;0.60;0.40;;;17.60;26.70;17.40;95031.00;;;;10341846;28;45926;-74
2022/01/29 14:22:06;;;;;;;0.50;0.35;;;17.60;26.70;17.40;95032.00;;;;10314608;28;45570;-73
2022/01/29 14:27:08;;;;;;;0.73;0.40;;;17.60;26.80;17.40;95043.00;;;;10314071;28;47449;-74
2022/01/29 14:32:10;;;;;;;0.85;0.40;;;17.60;26.90;17.40;95026.00;;;;10313254;28;47456;-75
2022/01/29 14:37:12;;;;;;;0.85;0.30;;;17.50;26.80;17.50;95010.00;;;;10310994;28;47171;-74
2022/01/29 14:42:12;;;;;;;0.98;0.40;;;17.60;28.00;17.50;95015.00;;;;10348525;28;46963;-73
2022/01/29 14:47:14;;;;;;;2.08;0.50;;;17.70;27.50;17.60;95024.00;;;;10314107;28;45375;-74
2022/01/29 14:52:15;;;;;;;2.10;0.47;;;17.80;27.40;17.60;95036.00;;;;10333715;28;45379;-73
2022/01/29 14:57:16;;;;;;;1.20;0.50;;;17.90;27.30;17.60;95025.00;;;;10351305;28;45537;-73
2022/01/29 15:02:17;;;;;;;1.13;0.70;;;18.00;27.20;17.60;95027.00;;;;10346063;28;48379;-73
2022/01/29 15:07:23;;;;;;;1.38;0.60;;;17.90;27.10;17.70;95034.00;;;;10325042;28;47021;-74
2022/01/29 15:12:24;;;;;;;0.77;0.57;;;17.90;27.10;17.60;95003.00;;;;10313768;28;46988;-73
2022/01/29 15:17:24;;;;;;;0.80;0.60;;;18.00;27.20;17.60;95004.00;;;;10281104;28;46891;-75
2022/01/29 15:22:25;;;;;;;3.50;0.47;;;17.80;27.30;17.60;95025.00;;;;10327578;28;45480;-73
2022/01/29 15:27:26;;;;;;;0.40;0.38;;;17.80;27.40;17.60;95005.00;;;;10301983;28;47435;-72
2022/01/29 15:32:29;;;;;;;0.70;0.50;;;17.90;27.70;17.60;95013.00;;;;10311441;28;48066;-74
2022/01/29 15:37:30;;;;;;;0.65;0.30;;;17.90;27.60;17.70;94994.00;;;;10316597;28;47030;-76
2022/01/29 15:42:31;;;;;;;0.38;0.20;;;17.90;27.90;17.70;95014.00;;;;10342872;28;45523;-74
2022/01/29 15:47:32;;;;;;;0.77;0.40;;;18.00;28.40;17.70;95020.00;;;;10322191;28;46514;-73
2022/01/29 15:52:32;;;;;;;0.55;0.30;;;18.00;28.10;17.80;95011.00;;;;10311617;28;46832;-73
2022/01/29 15:57:36;;;;;;;0.60;0.30;;;18.10;28.20;17.80;95021.00;;;;10309136;28;46320;-73
2022/01/29 16:02:36;;;;;;;0.73;0.50;;;18.10;28.00;17.80;95027.00;;;;10307357;28;48134;-74
2022/01/29 16:07:37;;;;;;;0.30;0.30;;;18.20;28.10;17.90;95024.00;;;;10310567;28;47968;-74
2022/01/29 16:12:38;;;;;;;0.38;0.30;;;18.20;28.10;17.80;95017.00;;;;10314916;28;48253;-73
2022/01/29 16:17:39;;;;;;;0.20;0.20;;;18.30;28.20;17.90;95025.00;;;;10311124;28;47299;-73
2022/01/29 16:22:40;;;;;;;0.60;0.30;;;18.30;28.20;18.00;95042.00;;;;10337580;28;46152;-74
2022/01/29 16:27:41;;;;;;;0.20;0.20;;;18.40;28.40;18.00;95043.00;;;;10351128;28;45501;-74
2022/01/29 16:32:42;;;;;;;0.30;0.30;;;18.40;28.40;18.00;95047.00;;;;10352037;28;47896;-73
2022/01/29 16:37:42;;;;;;;0.57;0.20;;;18.40;28.50;18.00;95039.00;;;;10352499;28;46880;-73
2022/01/29 16:42:43;;;;;;;0.10;0.10;;;18.40;28.60;18.10;95025.00;;;;10338330;28;46591;-74
2022/01/29 16:47:44;;;;;;;0.47;0.40;;;18.40;28.50;18.10;95019.00;;;;10310107;28;47122;-74
2022/01/29 16:52:45;;;;;;;0.50;0.40;;;18.50;28.60;18.10;95043.00;;;;10321830;28;48307;-74
2022/01/29 16:57:46;;;;;;;0.32;0.32;;;18.50;28.60;18.10;95048.00;;;;10309866;28;46769;-74
2022/01/29 17:02:47;;;;;;;0.98;0.47;;;18.50;28.40;18.20;95041.00;;;;10310454;28;46306;-73
2022/01/29 17:07:47;;;;;;;0.63;0.40;;;18.50;28.60;18.10;95054.00;;;;10309631;28;47377;-73
2022/01/29 17:12:50;;;;;;;0.25;0.25;;;18.60;28.60;18.20;95054.00;;;;10293607;28;48367;-74
2022/01/29 17:17:50;;;;;;;0.20;0.20;;;18.50;28.60;18.10;95069.00;;;;10312097;28;47173;-74
2022/01/29 17:22:51;;;;;;;0.28;0.20;;;18.50;28.50;18.10;95070.00;;;;10343710;28;47228;-73
2022/01/29 17:27:52;;;;;;;0.20;0.20;;;18.50;28.80;18.10;95065.00;;;;10355344;28;47083;-73
2022/01/29 17:32:52;;;;;;;0.10;0.10;;;18.50;28.70;18.00;95053.00;;;;10346327;28;46989;-74
2022/01/29 17:37:54;;;;;;;0.30;0.30;;;18.40;29.10;18.00;95051.00;;;;10296779;28;47429;-73
2022/01/29 17:42:54;;;;;;;0.30;0.30;;;18.30;29.00;17.90;95029.00;;;;10316380;28;45344;-74
2022/01/29 17:47:56;;;;;;;0.40;0.40;;;18.30;29.30;17.90;95042.00;;;;10315612;28;45379;-74
2022/01/29 17:52:56;;;;;;;0.50;0.50;;;18.20;29.30;17.80;95020.00;;;;10299107;28;48163;-74
2022/01/29 17:57:57;;;;;;;0.40;0.40;;;18.00;29.40;17.80;95038.00;;;;10299254;28;46981;-74
2022/01/29 18:02:58;;;;;;;1.52;0.60;;;18.00;29.50;17.80;95047.00;;;;10309881;28;45476;-74
2022/01/29 18:07:58;;;;;;;4.03;0.50;;;18.00;29.60;17.70;95056.00;;;;10313239;28;46451;-74
2022/01/29 18:12:59;;;;;;;3.15;0.70;;;17.90;30.10;17.70;95049.00;;;;10315114;28;47502;-75
2022/01/29 18:18:00;;;;;;;0.95;0.50;;;17.90;30.20;17.70;95021.00;;;;10314324;28;47298;-74
2022/01/29 18:23:00;;;;;;;0.55;0.30;;;17.80;30.20;17.60;95038.00;;;;10342938;28;45332;-74
2022/01/29 18:28:03;;;;;;;0.52;0.30;;;17.70;30.40;17.60;95034.00;;;;10343530;28;46861;-74
2022/01/29 18:33:04;;;;;;;1.67;0.38;;;17.80;30.20;17.60;95041.00;;;;10298337;28;48311;-74
2022/01/29 18:38:04;;;;;;;0.35;0.20;;;17.70;30.20;17.60;95036.00;;;;10314738;28;45501;-74
2022/01/29 18:43:05;;;;;;;0.55;0.17;;;17.70;30.30;17.50;95007.00;;;;10314402;28;46733;-74
2022/01/29 18:48:07;;;;;;;0.20;0.20;;;17.70;30.60;17.50;95032.00;;;;10313967;28;46905;-75
2022/01/29 18:53:08;;;;;;;0.70;0.20;;;17.60;30.70;17.50;95024.00;;;;10313940;28;46516;-75
2022/01/29 18:58:09;;;;;;;0.10;0.10;;;17.60;30.30;17.50;95019.00;;;;10314637;28;45220;-75
2022/01/29 19:03:10;;;;;;;0.30;0.10;;;17.60;30.40;17.50;95012.00;;;;10314085;28;48193;-75
2022/01/29 19:08:11;;;;;;;0.10;0.10;;;17.50;30.50;17.50;95030.00;;;;10297008;28;47054;-75
2022/01/29 19:13:11;;;;;;;0.10;0.10;;;17.60;30.50;17.50;94996.00;;;;10297867;28;47400;-75
2022/01/29 19:18:13;;;;;;;0.20;0.10;;;17.50;30.90;17.50;95011.00;;;;10314726;28;45566;-75
2022/01/29 19:23:19;;;;;;;0.10;0.10;;;17.50;30.40;17.50;94991.00;;;;10326874;28;47021;-74
2022/01/29 19:28:19;;;;;;;0.45;0.20;;;17.60;30.40;17.50;95006.00;;;;10354189;28;47297;-75
2022/01/29 19:33:21;;;;;;;0.38;0.20;;;17.60;30.90;17.40;94987.00;;;;10337290;28;48134;-75
2022/01/29 19:38:22;;;;;;;0.30;0.30;;;17.50;30.50;17.50;94992.00;;;;10353404;28;46272;-75
2022/01/29 19:43:23;;;;;;;0.22;0.20;;;17.50;30.80;17.50;94990.00;;;;10353560;28;46689;-75
2022/01/29 19:48:23;;;;;;;0.20;0.20;;;17.50;30.60;17.50;95013.00;;;;10335965;28;47512;-75
2022/01/29 19:53:25;;;;;;;0.10;0.10;;;17.60;30.80;17.50;95022.00;;;;10356119;28;45468;-75
2022/01/29 19:58:27;;;;;;;0.10;0.10;;;17.60;30.60;17.50;95018.00;;;;10359151;28;45261;-75
2022/01/29 20:03:27;;;;;;;0.10;0.10;;;17.60;30.60;17.50;95020.00;;;;10352569;28;46781;-75
2022/01/29 20:08:28;;;;;;;0.00;0.00;;;17.70;30.70;17.50;95008.00;;;;10353362;28;47026;-75
2022/01/29 20:13:29;;;;;;;0.00;0.00;;;17.70;30.70;17.50;95017.00;;;;10355072;28;46347;-75
2022/01/29 20:18:30;;;;;;;0.20;0.10;;;17.70;30.50;17.60;95008.00;;;;10355907;28;47456;-76
2022/01/29 20:23:30;;;;;;;0.38;0.20;;;17.70;30.90;17.60;95005.00;;;;10322165;28;46635;-75
2022/01/29 20:28:31;;;;;;;0.10;0.10;;;17.70;31.10;17.60;94994.00;;;;10313404;28;46245;-75
2022/01/29 20:33:32;;;;;;;0.40;0.10;;;17.70;31.10;17.70;94994.00;;;;10311949;28;45204;-75
2022/01/29 20:38:33;;;;;;;0.10;0.10;;;17.70;31.90;17.70;95004.00;;;;10312844;28;45457;-75
2022/01/29 20:43:33;;;;;;;0.10;0.10;;;17.80;31.20;17.70;94996.00;;;;10317392;28;46923;-75
2022/01/29 20:48:34;;;;;;;0.20;0.10;;;17.80;31.10;17.70;95013.00;;;;10310571;28;45215;-75
2022/01/29 20:53:35;;;;;;;0.05;0.00;;;17.80;31.30;17.70;95036.00;;;;10336972;28;47381;-75
2022/01/29 20:58:35;;;;;;;0.20;0.00;;;17.80;31.20;17.70;95041.00;;;;10357590;28;45432;-74
2022/01/29 21:03:37;;;;;;;0.00;0.00;;;17.80;31.20;17.70;95040.00;;;;10326444;28;45604;-75
2022/01/29 21:08:39;;;;;;;0.00;0.00;;;17.80;31.00;17.70;95058.00;;;;10357684;28;46952;-75
2022/01/29 21:13:40;;;;;;;0.22;0.03;;;17.90;31.10;17.80;95059.00;;;;10357540;28;46982;-75
2022/01/29 21:18:40;;;;;;;0.13;0.08;;;17.90;30.80;17.70;95074.00;;;;10357488;28;48334;-77
2022/01/29 21:23:41;;;;;;;0.45;0.20;;;17.90;30.60;17.70;95035.00;;;;10382287;28;45415;-74
2022/01/29 21:28:42;;;;;;;0.13;0.10;;;17.90;30.60;17.70;95021.00;;;;10365687;28;46607;-75
2022/01/29 21:33:46;;;;;;;0.50;0.20;;;17.90;30.50;17.70;95046.00;;;;10348484;28;47136;-75
2022/01/29 21:38:46;;;;;;;0.30;0.30;;;17.90;30.50;17.70;95046.00;;;;10349040;28;47511;-75
2022/01/29 21:43:47;;;;;;;0.40;0.30;;;17.80;30.50;17.70;95061.00;;;;10364653;28;46885;-75
2022/01/29 21:48:48;;;;;;;0.70;0.22;;;17.80;30.50;17.60;95047.00;;;;10363772;28;45280;-75
2022/01/29 21:53:48;;;;;;;0.20;0.20;;;17.80;30.50;17.60;95027.00;;;;10330871;28;45699;-73
2022/01/29 21:58:49;;;;;;;0.25;0.25;;;17.80;30.50;17.60;95033.00;;;;10323108;28;46492;-75
2022/01/29 22:03:50;;;;;;;0.30;0.22;;;17.80;30.70;17.60;95002.00;;;;10317122;28;45382;-73
2022/01/29 22:08:56;;;;;;;0.10;0.10;;;17.70;30.90;17.60;95032.00;;;;10315778;28;47297;-75
2022/01/29 22:14:08;;;;;;;0.20;0.20;;;17.70;30.80;17.50;95041.00;;;;10320572;28;45298;-74
2022/01/29 22:19:12;;;;;;;0.10;0.10;;;17.60;30.80;17.50;95017.00;;;;10321867;28;46350;-74
2022/01/29 22:24:13;;;;;;;0.20;0.10;;;17.70;30.90;17.50;95030.00;;;;10356798;28;45426;-75
2022/01/29 22:29:14;;;;;;;0.20;0.20;;;17.60;30.80;17.50;95008.00;;;;10357403;28;48252;-76